Time;durP1;ratioP1;P1;durP2;ratioP2;P2;SDS_P1;SDS_P2;PMS_P1;PMS_P2;Temp;Humidity;BMP_temperature;BMP_pressure;BME280_temperature;BME280_humidity;BME280_pressure;Samples;Min_cycle;Max_cycle;Signal;HPM_P1;HPM_P2
2021/09/25 00:00:56;;;;;;;;;;;;;;;;;;2140284;27;19930;-60
2021/09/25 00:01:58;;;;;;;;;;;;;;;;;;2139092;27;20026;-59
2021/09/25 00:03:00;;;;;;;;;;;;;;;;;;2131112;27;19987;-59
2021/09/25 00:04:02;;;;;;;;;;;;;;;;;;2131675;27;20399;-59
2021/09/25 00:05:05;;;;;;;;;;;;;;;;;;2131385;27;19923;-59
2021/09/25 00:06:06;;;;;;;;;;;;;;;;;;2131241;27;20038;-59
2021/09/25 00:07:07;;;;;;;;;;;;;;;;;;2131390;27;19923;-59
2021/09/25 00:08:08;;;;;;;;;;;;;;;;;;2131047;27;19931;-60
2021/09/25 00:09:09;;;;;;;;;;;;;;;;;;2126722;27;19935;-59
2021/09/25 00:10:11;;;;;;;;;;;;;;;;;;2123153;28;20396;-60
2021/09/25 00:11:12;;;;;;;;;;;;;;;;;;2127056;27;19923;-60
2021/09/25 00:12:15;;;;;;;;;;;;;;;;;;2132749;27;19923;-60
2021/09/25 00:13:16;;;;;;;;;;;;;;;;;;2131841;27;20299;-60
2021/09/25 00:14:18;;;;;;;;;;;;;;;;;;2131830;27;19927;-60
2021/09/25 00:15:20;;;;;;;;;;;;;;;;;;2123903;27;19950;-59
2021/09/25 00:16:25;;;;;;;;;;;;;;;;;;2123231;28;20387;-60
2021/09/25 00:17:27;;;;;;;;;;;;;;;;;;2130030;27;19930;-59
2021/09/25 00:18:28;;;;;;;;;;;;;;;;;;2132250;27;19930;-60
2021/09/25 00:19:29;;;;;;;;;;;;;;;;;;2131676;27;20371;-60
2021/09/25 00:20:31;;;;;;;;;;;;;;;;;;2130639;27;20001;-60
2021/09/25 00:21:33;;;;;;;;;;;;;;;;;;2140554;27;19923;-60
2021/09/25 00:22:36;;;;;;;;;;;;;;;;;;2140415;27;20063;-60
2021/09/25 00:23:39;;;;;;;;;;;;;;;;;;2132594;27;20400;-60
2021/09/25 00:24:42;;;;;;;;;;;;;;;;;;2140369;27;19922;-60
2021/09/25 00:25:44;;;;;;;;;;;;;;;;;;2139042;27;19923;-60
2021/09/25 00:26:47;;;;;;;;;;;;;;;;;;2132365;27;19930;-60
2021/09/25 00:27:48;;;;;;;;;;;;;;;;;;2131873;27;19934;-60
2021/09/25 00:28:50;;;;;;;;;;;;;;;;;;2131139;27;20397;-60
2021/09/25 00:29:51;;;;;;;;;;;;;;;;;;2133237;27;19923;-60
2021/09/25 00:30:52;;;;;;;;;;;;;;;;;;2131818;27;19971;-60
2021/09/25 00:31:54;;;;;;;;;;;;;;;;;;2131026;27;19991;-60
2021/09/25 00:32:56;;;;;;;;;;;;;;;;;;2131427;27;20021;-60
2021/09/25 00:33:58;;;;;;;;;;;;;;;;;;2131672;27;19995;-60
2021/09/25 00:35:01;;;;;;;;;;;;;;;;;;2131574;27;20383;-60
2021/09/25 00:36:03;;;;;;;;;;;;;;;;;;2131664;27;20310;-59
2021/09/25 00:37:05;;;;;;;;;;;;;;;;;;2131938;27;19923;-60
2021/09/25 00:38:06;;;;;;;;;;;;;;;;;;2131554;27;19931;-60
2021/09/25 00:39:10;;;;;;;;;;;;;;;;;;2131786;27;19923;-60
2021/09/25 00:40:11;;;;;;;;;;;;;;;;;;2131398;27;20006;-60
2021/09/25 00:41:13;;;;;;;;;;;;;;;;;;2133052;27;20302;-60
2021/09/25 00:42:15;;;;;;;;;;;;;;;;;;2131814;27;20299;-61
2021/09/25 00:43:17;;;;;;;;;;;;;;;;;;2129945;27;19951;-60
2021/09/25 00:44:18;;;;;;;;;;;;;;;;;;2133073;27;19931;-60
2021/09/25 00:45:22;;;;;;;;;;;;;;;;;;2131646;27;20370;-60
2021/09/25 00:46:24;;;;;;;;;;;;;;;;;;2131176;27;20398;-60
2021/09/25 00:47:24;;;;;;;;;;;;;;;;;;2133234;27;19922;-60
2021/09/25 00:48:26;;;;;;;;;;;;;;;;;;2140602;27;19930;-61
2021/09/25 00:49:27;;;;;;;;;;;;;;;;;;2136729;27;19983;-60
2021/09/25 00:50:31;;;;;;;;;;;;;;;;;;2128806;27;19929;-60
2021/09/25 00:51:32;;;;;;;;;;;;;;;;;;2123428;28;20295;-60
2021/09/25 00:52:34;;;;;;;;;;;;;;;;;;2127399;27;19923;-60
2021/09/25 00:53:35;;;;;;;;;;;;;;;;;;2138026;27;19927;-60
2021/09/25 00:54:37;;;;;;;;;;;;;;;;;;2140389;27;19923;-60
2021/09/25 00:55:38;;;;;;;;;;;;;;;;;;2134841;27;19931;-60
2021/09/25 00:56:44;;;;;;;;;;;;;;;;;;2130291;27;19946;-60
2021/09/25 00:57:45;;;;;;;;;;;;;;;;;;2131810;27;19975;-60
2021/09/25 00:58:47;;;;;;;;;;;;;;;;;;2132821;27;19927;-60
2021/09/25 00:59:47;;;;;;;;;;;;;;;;;;2131902;27;20456;-60
2021/09/25 01:00:49;;;;;;;;;;;;;;;;;;2132732;27;19926;-60
2021/09/25 01:01:50;;;;;;;;;;;;;;;;;;2134462;27;19931;-60
2021/09/25 01:02:52;;;;;;;;;;;;;;;;;;2133225;27;19923;-59
2021/09/25 01:03:55;;;;;;;;;;;;;;;;;;2132984;27;19923;-60
2021/09/25 01:04:56;;;;;;;;;;;;;;;;;;2130076;27;19966;-60
2021/09/25 01:05:57;;;;;;;;;;;;;;;;;;2133297;27;20336;-61
2021/09/25 01:06:59;;;;;;;;;;;;;;;;;;2132911;27;19930;-62
2021/09/25 01:08:01;;;;;;;;;;;;;;;;;;2129749;27;19923;-60
2021/09/25 01:09:05;;;;;;;;;;;;;;;;;;2124872;28;20002;-60
2021/09/25 01:10:06;;;;;;;;;;;;;;;;;;2124971;27;19927;-60
2021/09/25 01:11:08;;;;;;;;;;;;;;;;;;2128860;27;19927;-60
2021/09/25 01:12:10;;;;;;;;;;;;;;;;;;2124969;28;19927;-62
2021/09/25 01:13:11;;;;;;;;;;;;;;;;;;2128038;27;20060;-60
2021/09/25 01:14:12;;;;;;;;;;;;;;;;;;2134078;27;20079;-61
2021/09/25 01:15:14;;;;;;;;;;;;;;;;;;2132960;27;19948;-62
2021/09/25 01:16:15;;;;;;;;;;;;;;;;;;2133509;27;20022;-61
2021/09/25 01:17:20;;;;;;;;;;;;;;;;;;2133985;27;19927;-59
2021/09/25 01:18:21;;;;;;;;;;;;;;;;;;2133390;27;19930;-61
2021/09/25 01:19:22;;;;;;;;;;;;;;;;;;2133005;27;20451;-63
2021/09/25 01:20:23;;;;;;;;;;;;;;;;;;2139746;27;20013;-60
2021/09/25 01:21:25;;;;;;;;;;;;;;;;;;2142013;27;19923;-60
2021/09/25 01:22:26;;;;;;;;;;;;;;;;;;2134138;27;19923;-63
2021/09/25 01:23:28;;;;;;;;;;;;;;;;;;2140603;27;19929;-60
2021/09/25 01:24:29;;;;;;;;;;;;;;;;;;2142127;27;19922;-60
2021/09/25 01:25:31;;;;;;;;;;;;;;;;;;2130976;27;20059;-63
2021/09/25 01:26:32;;;;;;;;;;;;;;;;;;2125051;28;20006;-60
2021/09/25 01:27:35;;;;;;;;;;;;;;;;;;2126007;27;19962;-61
2021/09/25 01:28:36;;;;;;;;;;;;;;;;;;2130377;27;20479;-62
2021/09/25 01:29:37;;;;;;;;;;;;;;;;;;2124495;28;19995;-60
2021/09/25 01:30:38;;;;;;;;;;;;;;;;;;2125840;27;19927;-60
2021/09/25 01:31:40;;;;;;;;;;;;;;;;;;2130824;27;19931;-60
2021/09/25 01:32:41;;;;;;;;;;;;;;;;;;2124420;28;20206;-60
2021/09/25 01:33:42;;;;;;;;;;;;;;;;;;2127308;27;19923;-60
2021/09/25 01:34:44;;;;;;;;;;;;;;;;;;2137443;27;19987;-61
2021/09/25 01:35:46;;;;;;;;;;;;;;;;;;2141641;27;20343;-59
2021/09/25 01:36:47;;;;;;;;;;;;;;;;;;2137059;27;19996;-60
2021/09/25 01:37:48;;;;;;;;;;;;;;;;;;2138282;27;19947;-60
2021/09/25 01:38:51;;;;;;;;;;;;;;;;;;2142097;27;19931;-60
2021/09/25 01:39:53;;;;;;;;;;;;;;;;;;2136924;27;19931;-60
2021/09/25 01:40:54;;;;;;;;;;;;;;;;;;2133149;27;20294;-60
2021/09/25 01:41:56;;;;;;;;;;;;;;;;;;2133241;27;19923;-61
2021/09/25 01:42:57;;;;;;;;;;;;;;;;;;2131983;27;20363;-60
2021/09/25 01:43:58;;;;;;;;;;;;;;;;;;2141359;27;19923;-62
2021/09/25 01:45:00;;;;;;;;;;;;;;;;;;2141777;27;20298;-60
2021/09/25 01:46:02;;;;;;;;;;;;;;;;;;2135290;27;19930;-60
2021/09/25 01:47:02;;;;;;;;;;;;;;;;;;2133151;27;19930;-61
2021/09/25 01:48:19;;;;;;;;;;;;;;;;;;2132732;27;19923;-60
2021/09/25 01:49:21;;;;;;;;;;;;;;;;;;2135749;27;19930;-61
2021/09/25 01:50:23;;;;;;;;;;;;;;;;;;2141727;27;19930;-61
2021/09/25 01:51:24;;;;;;;;;;;;;;;;;;2131848;27;19977;-60
2021/09/25 01:52:26;;;;;;;;;;;;;;;;;;2136611;27;19923;-61
2021/09/25 01:53:27;;;;;;;;;;;;;;;;;;2141845;27;19922;-60
2021/09/25 01:54:28;;;;;;;;;;;;;;;;;;2138225;27;19929;-60
2021/09/25 01:55:29;;;;;;;;;;;;;;;;;;2134128;27;19946;-60
2021/09/25 01:56:30;;;;;;;;;;;;;;;;;;2133043;27;20341;-60
2021/09/25 01:57:31;;;;;;;;;;;;;;;;;;2132505;27;19923;-59
2021/09/25 01:58:32;;;;;;;;;;;;;;;;;;2138099;27;19922;-61
2021/09/25 01:59:34;;;;;;;;;;;;;;;;;;2141849;27;19923;-61
2021/09/25 02:00:39;;;;;;;;;;;;;;;;;;2135241;27;19931;-60
2021/09/25 02:01:41;;;;;;;;;;;;;;;;;;2133864;27;19927;-61
2021/09/25 02:02:42;;;;;;;;;;;;;;;;;;2133024;27;19962;-65
2021/09/25 02:03:45;;;;;;;;;;;;;;;;;;2132710;27;19926;-63
2021/09/25 02:04:47;;;;;;;;;;;;;;;;;;2133375;27;19930;-60
2021/09/25 02:05:48;;;;;;;;;;;;;;;;;;2133195;27;19951;-60
2021/09/25 02:06:49;;;;;;;;;;;;;;;;;;2133853;27;20288;-61
2021/09/25 02:07:51;;;;;;;;;;;;;;;;;;2133510;27;19938;-60
2021/09/25 02:08:54;;;;;;;;;;;;;;;;;;2133205;27;20276;-61
2021/09/25 02:09:56;;;;;;;;;;;;;;;;;;2132058;27;20002;-61
2021/09/25 02:10:57;;;;;;;;;;;;;;;;;;2132974;27;19955;-59
2021/09/25 02:11:58;;;;;;;;;;;;;;;;;;2132373;27;20359;-60
2021/09/25 02:12:59;;;;;;;;;;;;;;;;;;2130628;27;20006;-63
2021/09/25 02:14:00;;;;;;;;;;;;;;;;;;2124386;28;19955;-60
2021/09/25 02:15:02;;;;;;;;;;;;;;;;;;2125633;27;19931;-60
2021/09/25 02:16:03;;;;;;;;;;;;;;;;;;2130132;27;19924;-60
2021/09/25 02:17:08;;;;;;;;;;;;;;;;;;2124331;28;19924;-59
2021/09/25 02:18:08;;;;;;;;;;;;;;;;;;2126872;27;20401;-60
2021/09/25 02:19:09;;;;;;;;;;;;;;;;;;2133405;27;20406;-61
2021/09/25 02:20:11;;;;;;;;;;;;;;;;;;2132981;27;19986;-60
2021/09/25 02:21:15;;;;;;;;;;;;;;;;;;2133549;27;19923;-60
2021/09/25 02:22:16;;;;;;;;;;;;;;;;;;2137634;27;20013;-62
2021/09/25 02:23:18;;;;;;;;;;;;;;;;;;2141474;27;20375;-60
2021/09/25 02:24:19;;;;;;;;;;;;;;;;;;2136665;27;19927;-59
2021/09/25 02:25:21;;;;;;;;;;;;;;;;;;2133967;27;19967;-60
2021/09/25 02:26:22;;;;;;;;;;;;;;;;;;2132969;27;20347;-60
2021/09/25 02:27:23;;;;;;;;;;;;;;;;;;2133788;27;19923;-62
2021/09/25 02:28:24;;;;;;;;;;;;;;;;;;2125652;27;19932;-60
2021/09/25 02:29:31;;;;;;;;;;;;;;;;;;2124275;28;19923;-60
2021/09/25 02:30:31;;;;;;;;;;;;;;;;;;2131615;27;20018;-60
2021/09/25 02:31:33;;;;;;;;;;;;;;;;;;2132889;27;19923;-60
2021/09/25 02:32:33;;;;;;;;;;;;;;;;;;2132888;27;19923;-63
2021/09/25 02:33:35;;;;;;;;;;;;;;;;;;2134024;27;20413;-60
2021/09/25 02:34:36;;;;;;;;;;;;;;;;;;2132652;27;19927;-60
2021/09/25 02:35:38;;;;;;;;;;;;;;;;;;2132145;27;20010;-60
2021/09/25 02:36:39;;;;;;;;;;;;;;;;;;2133287;27;19927;-61
2021/09/25 02:37:42;;;;;;;;;;;;;;;;;;2132771;27;20006;-62
2021/09/25 02:38:43;;;;;;;;;;;;;;;;;;2132726;27;19923;-60
2021/09/25 02:39:45;;;;;;;;;;;;;;;;;;2132384;27;20379;-60
2021/09/25 02:40:46;;;;;;;;;;;;;;;;;;2133115;27;19923;-60
2021/09/25 02:41:47;;;;;;;;;;;;;;;;;;2132356;27;19927;-59
2021/09/25 02:42:48;;;;;;;;;;;;;;;;;;2131090;27;20021;-60
2021/09/25 02:43:50;;;;;;;;;;;;;;;;;;2132778;27;20437;-59
2021/09/25 02:44:51;;;;;;;;;;;;;;;;;;2132359;27;19935;-60
2021/09/25 02:45:52;;;;;;;;;;;;;;;;;;2134634;27;19923;-60
2021/09/25 02:46:53;;;;;;;;;;;;;;;;;;2132734;27;19927;-59
2021/09/25 02:47:54;;;;;;;;;;;;;;;;;;2130607;27;20329;-60
2021/09/25 02:48:55;;;;;;;;;;;;;;;;;;2135274;27;19929;-63
2021/09/25 02:49:56;;;;;;;;;;;;;;;;;;2141186;27;19929;-59
2021/09/25 02:50:57;;;;;;;;;;;;;;;;;;2135139;27;19938;-59
2021/09/25 02:51:58;;;;;;;;;;;;;;;;;;2133599;27;19923;-60
2021/09/25 02:53:00;;;;;;;;;;;;;;;;;;2132910;27;19927;-59
2021/09/25 02:54:01;;;;;;;;;;;;;;;;;;2131150;27;20392;-60
2021/09/25 02:55:03;;;;;;;;;;;;;;;;;;2139041;27;19964;-60
2021/09/25 02:56:04;;;;;;;;;;;;;;;;;;2141348;27;20399;-59
2021/09/25 02:57:06;;;;;;;;;;;;;;;;;;2135591;27;20017;-59
2021/09/25 02:58:08;;;;;;;;;;;;;;;;;;2133204;27;19998;-62
2021/09/25 02:59:13;;;;;;;;;;;;;;;;;;2132501;27;20322;-59
2021/09/25 03:00:18;;;;;;;;;;;;;;;;;;2131304;27;19948;-60
2021/09/25 03:01:25;;;;;;;;;;;;;;;;;;2141339;27;20017;-59
2021/09/25 03:02:27;;;;;;;;;;;;;;;;;;2139820;27;19923;-60
2021/09/25 03:03:35;;;;;;;;;;;;;;;;;;2124624;27;20364;-59
2021/09/25 03:04:36;;;;;;;;;;;;;;;;;;2123670;28;19927;-60
2021/09/25 03:05:37;;;;;;;;;;;;;;;;;;2129482;27;19930;-61
2021/09/25 03:06:38;;;;;;;;;;;;;;;;;;2132290;27;19923;-59
2021/09/25 03:07:40;;;;;;;;;;;;;;;;;;2132084;27;19927;-60
2021/09/25 03:08:41;;;;;;;;;;;;;;;;;;2131054;27;19971;-59
2021/09/25 03:09:42;;;;;;;;;;;;;;;;;;2131342;27;19931;-59
2021/09/25 03:10:43;;;;;;;;;;;;;;;;;;2132104;27;20299;-58
2021/09/25 03:11:44;;;;;;;;;;;;;;;;;;2130939;27;19923;-60
2021/09/25 03:12:45;;;;;;;;;;;;;;;;;;2140515;27;20359;-59
2021/09/25 03:13:46;;;;;;;;;;;;;;;;;;2140590;27;20494;-59
2021/09/25 03:14:48;;;;;;;;;;;;;;;;;;2133237;27;19929;-59
2021/09/25 03:15:48;;;;;;;;;;;;;;;;;;2132179;27;20340;-59
2021/09/25 03:16:49;;;;;;;;;;;;;;;;;;2132304;27;19980;-59
2021/09/25 03:17:50;;;;;;;;;;;;;;;;;;2133040;27;19994;-59
2021/09/25 03:18:52;;;;;;;;;;;;;;;;;;2132183;27;20017;-59
2021/09/25 03:19:53;;;;;;;;;;;;;;;;;;2131830;27;19950;-59
2021/09/25 03:20:55;;;;;;;;;;;;;;;;;;2133503;27;19923;-59
2021/09/25 03:21:56;;;;;;;;;;;;;;;;;;2132404;27;20275;-59
2021/09/25 03:22:57;;;;;;;;;;;;;;;;;;2131494;27;19962;-58
2021/09/25 03:23:58;;;;;;;;;;;;;;;;;;2132067;27;19938;-59
2021/09/25 03:25:07;;;;;;;;;;;;;;;;;;2132214;27;20018;-59
2021/09/25 03:26:08;;;;;;;;;;;;;;;;;;2131705;27;20080;-59
2021/09/25 03:27:10;;;;;;;;;;;;;;;;;;2136775;27;19962;-59
2021/09/25 03:28:11;;;;;;;;;;;;;;;;;;2140836;27;19945;-59
2021/09/25 03:29:13;;;;;;;;;;;;;;;;;;2135501;27;19929;-59
2021/09/25 03:30:16;;;;;;;;;;;;;;;;;;2127138;27;19923;-59
2021/09/25 03:31:17;;;;;;;;;;;;;;;;;;2123800;28;19929;-59
2021/09/25 03:32:22;;;;;;;;;;;;;;;;;;2129109;27;20014;-59
2021/09/25 03:33:25;;;;;;;;;;;;;;;;;;2123882;27;20010;-59
2021/09/25 03:34:27;;;;;;;;;;;;;;;;;;2123703;28;19927;-59
2021/09/25 03:35:31;;;;;;;;;;;;;;;;;;2128188;27;19931;-60
2021/09/25 03:36:33;;;;;;;;;;;;;;;;;;2123541;28;19924;-59
2021/09/25 03:37:34;;;;;;;;;;;;;;;;;;2123624;28;19928;-59
2021/09/25 03:38:35;;;;;;;;;;;;;;;;;;2131473;27;19923;-58
2021/09/25 03:39:37;;;;;;;;;;;;;;;;;;2132440;27;19971;-59
2021/09/25 03:40:41;;;;;;;;;;;;;;;;;;2131837;27;19927;-58
2021/09/25 03:41:43;;;;;;;;;;;;;;;;;;2132593;27;19923;-59
2021/09/25 03:42:44;;;;;;;;;;;;;;;;;;2132363;27;20006;-62
2021/09/25 03:43:50;;;;;;;;;;;;;;;;;;2131961;27;19971;-60
2021/09/25 03:44:51;;;;;;;;;;;;;;;;;;2124376;27;19931;-59
2021/09/25 03:45:52;;;;;;;;;;;;;;;;;;2124012;28;19930;-59
2021/09/25 03:46:55;;;;;;;;;;;;;;;;;;2127746;27;19946;-59
2021/09/25 03:47:59;;;;;;;;;;;;;;;;;;2133196;27;20372;-60
2021/09/25 03:49:00;;;;;;;;;;;;;;;;;;2132209;27;19938;-59
2021/09/25 03:50:02;;;;;;;;;;;;;;;;;;2128838;27;19938;-44
2021/09/25 03:51:04;;;;;;;;;;;;;;;;;;2133016;27;20002;-43
2021/09/25 03:52:06;;;;;;;;;;;;;;;;;;2132127;27;20002;-43
2021/09/25 03:53:07;;;;;;;;;;;;;;;;;;2132441;27;19931;-43
2021/09/25 03:54:09;;;;;;;;;;;;;;;;;;2132121;27;20018;-43
2021/09/25 03:55:10;;;;;;;;;;;;;;;;;;2132057;27;19959;-43
2021/09/25 03:56:11;;;;;;;;;;;;;;;;;;2133728;27;20391;-43
2021/09/25 03:57:12;;;;;;;;;;;;;;;;;;2132344;27;19960;-44
2021/09/25 03:58:14;;;;;;;;;;;;;;;;;;2132099;27;19923;-44
2021/09/25 03:59:15;;;;;;;;;;;;;;;;;;2129777;27;19924;-60
2021/09/25 04:00:18;;;;;;;;;;;;;;;;;;2124039;28;19923;-59
2021/09/25 04:01:19;;;;;;;;;;;;;;;;;;2124772;27;20010;-60
2021/09/25 04:02:21;;;;;;;;;;;;;;;;;;2133042;27;19962;-59
2021/09/25 04:03:22;;;;;;;;;;;;;;;;;;2132334;27;19968;-62
2021/09/25 04:04:24;;;;;;;;;;;;;;;;;;2131314;27;19930;-59
2021/09/25 04:05:27;;;;;;;;;;;;;;;;;;2133567;27;19945;-59
2021/09/25 04:06:29;;;;;;;;;;;;;;;;;;2132455;27;19923;-59
2021/09/25 04:07:29;;;;;;;;;;;;;;;;;;2132540;27;20177;-62
2021/09/25 04:08:31;;;;;;;;;;;;;;;;;;2136610;27;19949;-59
2021/09/25 04:09:33;;;;;;;;;;;;;;;;;;2140627;27;20009;-59
2021/09/25 04:10:36;;;;;;;;;;;;;;;;;;2134509;27;19923;-58
2021/09/25 04:11:37;;;;;;;;;;;;;;;;;;2138189;27;19962;-58
2021/09/25 04:12:39;;;;;;;;;;;;;;;;;;2141260;27;19922;-59
2021/09/25 04:13:40;;;;;;;;;;;;;;;;;;2132960;27;20423;-62
2021/09/25 04:14:41;;;;;;;;;;;;;;;;;;2131057;27;20359;-59
2021/09/25 04:15:42;;;;;;;;;;;;;;;;;;2132493;27;20425;-59
2021/09/25 04:16:44;;;;;;;;;;;;;;;;;;2132211;27;19964;-59
2021/09/25 04:17:46;;;;;;;;;;;;;;;;;;2132333;27;19934;-59
2021/09/25 04:18:47;;;;;;;;;;;;;;;;;;2132834;27;19930;-60
2021/09/25 04:19:52;;;;;;;;;;;;;;;;;;2131810;27;20284;-59
2021/09/25 04:20:53;;;;;;;;;;;;;;;;;;2132292;27;20051;-59
2021/09/25 04:22:02;;;;;;;;;;;;;;;;;;2131837;27;19927;-59
2021/09/25 04:23:03;;;;;;;;;;;;;;;;;;2133847;27;20017;-58
2021/09/25 04:24:05;;;;;;;;;;;;;;;;;;2141111;27;19966;-60
2021/09/25 04:25:06;;;;;;;;;;;;;;;;;;2138339;27;19929;-58
2021/09/25 04:26:07;;;;;;;;;;;;;;;;;;2135671;27;19922;-59
2021/09/25 04:27:09;;;;;;;;;;;;;;;;;;2140963;27;19923;-59
2021/09/25 04:28:10;;;;;;;;;;;;;;;;;;2137133;27;20295;-59
2021/09/25 04:29:12;;;;;;;;;;;;;;;;;;2133008;27;19923;-59
2021/09/25 04:30:13;;;;;;;;;;;;;;;;;;2132655;27;19978;-60
2021/09/25 04:31:15;;;;;;;;;;;;;;;;;;2131600;27;19927;-59
2021/09/25 04:32:16;;;;;;;;;;;;;;;;;;2137389;27;19923;-59
2021/09/25 04:33:20;;;;;;;;;;;;;;;;;;2141523;27;19927;-59
2021/09/25 04:34:21;;;;;;;;;;;;;;;;;;2135946;27;19969;-59
2021/09/25 04:35:22;;;;;;;;;;;;;;;;;;2140059;27;19927;-59
2021/09/25 04:36:23;;;;;;;;;;;;;;;;;;2142618;27;20263;-60
2021/09/25 04:37:25;;;;;;;;;;;;;;;;;;2136531;27;19978;-59
2021/09/25 04:38:26;;;;;;;;;;;;;;;;;;2133085;27;19929;-59
2021/09/25 04:39:27;;;;;;;;;;;;;;;;;;2134183;27;19929;-59
2021/09/25 04:40:29;;;;;;;;;;;;;;;;;;2133573;27;19922;-59
2021/09/25 04:41:32;;;;;;;;;;;;;;;;;;2134020;27;20464;-59
2021/09/25 04:42:33;;;;;;;;;;;;;;;;;;2133793;27;19927;-59
2021/09/25 04:43:35;;;;;;;;;;;;;;;;;;2133023;27;20009;-60
2021/09/25 04:44:36;;;;;;;;;;;;;;;;;;2133723;27;19934;-58
2021/09/25 04:45:37;;;;;;;;;;;;;;;;;;2133448;27;19923;-59
2021/09/25 04:46:42;;;;;;;;;;;;;;;;;;2135173;27;20416;-59
2021/09/25 04:47:42;;;;;;;;;;;;;;;;;;2133935;27;20014;-59
2021/09/25 04:48:48;;;;;;;;;;;;;;;;;;2133557;27;19923;-59
2021/09/25 04:49:49;;;;;;;;;;;;;;;;;;2134653;27;20388;-59
2021/09/25 04:50:49;;;;;;;;;;;;;;;;;;2128372;27;19931;-59
2021/09/25 04:51:51;;;;;;;;;;;;;;;;;;2127188;27;19978;-60
2021/09/25 04:52:52;;;;;;;;;;;;;;;;;;2132168;27;20308;-58
2021/09/25 04:53:54;;;;;;;;;;;;;;;;;;2133899;27;19930;-59
2021/09/25 04:54:56;;;;;;;;;;;;;;;;;;2132938;27;19923;-59
2021/09/25 04:55:57;;;;;;;;;;;;;;;;;;2133070;27;20010;-60
2021/09/25 04:56:59;;;;;;;;;;;;;;;;;;2133452;27;20060;-60
2021/09/25 04:58:01;;;;;;;;;;;;;;;;;;2132277;27;19934;-58
2021/09/25 04:59:02;;;;;;;;;;;;;;;;;;2134518;27;19930;-59
2021/09/25 05:00:03;;;;;;;;;;;;;;;;;;2133346;27;20055;-59
2021/09/25 05:01:05;;;;;;;;;;;;;;;;;;2133847;27;20351;-59
2021/09/25 05:02:06;;;;;;;;;;;;;;;;;;2134765;27;19930;-59
2021/09/25 05:03:08;;;;;;;;;;;;;;;;;;2133490;27;20016;-59
2021/09/25 05:04:10;;;;;;;;;;;;;;;;;;2130007;27;19924;-59
2021/09/25 05:05:12;;;;;;;;;;;;;;;;;;2141917;27;19923;-59
2021/09/25 05:06:14;;;;;;;;;;;;;;;;;;2142300;27;20022;-58
2021/09/25 05:07:15;;;;;;;;;;;;;;;;;;2133906;27;20291;-59
2021/09/25 05:08:16;;;;;;;;;;;;;;;;;;2142150;27;19923;-59
2021/09/25 05:09:21;;;;;;;;;;;;;;;;;;2142055;27;20291;-59
2021/09/25 05:10:22;;;;;;;;;;;;;;;;;;2132970;27;19929;-59
2021/09/25 05:11:25;;;;;;;;;;;;;;;;;;2142397;27;19934;-59
2021/09/25 05:12:25;;;;;;;;;;;;;;;;;;2141015;27;20328;-59
2021/09/25 05:13:27;;;;;;;;;;;;;;;;;;2133933;27;19923;-59
2021/09/25 05:14:29;;;;;;;;;;;;;;;;;;2133488;27;19923;-59
2021/09/25 05:15:30;;;;;;;;;;;;;;;;;;2133517;27;20001;-60
2021/09/25 05:16:31;;;;;;;;;;;;;;;;;;2132854;27;20347;-59
2021/09/25 05:17:35;;;;;;;;;;;;;;;;;;2133443;27;19923;-59
2021/09/25 05:18:37;;;;;;;;;;;;;;;;;;2132718;27;20205;-59
2021/09/25 05:19:40;;;;;;;;;;;;;;;;;;2140669;27;19934;-59
2021/09/25 05:20:44;;;;;;;;;;;;;;;;;;2142156;27;20018;-59
2021/09/25 05:21:44;;;;;;;;;;;;;;;;;;2133082;27;19937;-59
2021/09/25 05:22:46;;;;;;;;;;;;;;;;;;2141754;27;19958;-59
2021/09/25 05:23:47;;;;;;;;;;;;;;;;;;2142018;27;19934;-58
2021/09/25 05:24:48;;;;;;;;;;;;;;;;;;2135223;27;19927;-59
2021/09/25 05:25:49;;;;;;;;;;;;;;;;;;2133384;27;19923;-59
2021/09/25 05:26:50;;;;;;;;;;;;;;;;;;2133158;27;19958;-60
2021/09/25 05:27:52;;;;;;;;;;;;;;;;;;2132427;27;20005;-59
2021/09/25 05:28:53;;;;;;;;;;;;;;;;;;2133424;27;20010;-59
2021/09/25 05:29:56;;;;;;;;;;;;;;;;;;2132549;27;19931;-59
2021/09/25 05:30:57;;;;;;;;;;;;;;;;;;2135397;27;19923;-57
2021/09/25 05:32:01;;;;;;;;;;;;;;;;;;2142151;27;19966;-59
2021/09/25 05:33:02;;;;;;;;;;;;;;;;;;2137890;27;20438;-59
2021/09/25 05:34:03;;;;;;;;;;;;;;;;;;2133314;27;19930;-59
2021/09/25 05:35:07;;;;;;;;;;;;;;;;;;2133174;27;20015;-59
2021/09/25 05:36:09;;;;;;;;;;;;;;;;;;2133054;27;20014;-59
2021/09/25 05:37:11;;;;;;;;;;;;;;;;;;2133482;27;19923;-59
2021/09/25 05:38:13;;;;;;;;;;;;;;;;;;2132855;27;20002;-59
2021/09/25 05:39:15;;;;;;;;;;;;;;;;;;2134801;27;19967;-58
2021/09/25 05:40:16;;;;;;;;;;;;;;;;;;2133217;27;19923;-59
2021/09/25 05:41:20;;;;;;;;;;;;;;;;;;2132960;27;19931;-59
2021/09/25 05:42:22;;;;;;;;;;;;;;;;;;2133819;27;19939;-59
2021/09/25 05:43:23;;;;;;;;;;;;;;;;;;2133385;27;19923;-59
2021/09/25 05:44:24;;;;;;;;;;;;;;;;;;2132560;27;20083;-58
2021/09/25 05:45:25;;;;;;;;;;;;;;;;;;2134487;27;19930;-59
2021/09/25 05:46:26;;;;;;;;;;;;;;;;;;2132880;27;19930;-58
2021/09/25 05:47:28;;;;;;;;;;;;;;;;;;2132341;27;20054;-60
2021/09/25 05:48:30;;;;;;;;;;;;;;;;;;2133774;27;20009;-58
2021/09/25 05:49:32;;;;;;;;;;;;;;;;;;2133267;27;19923;-58
2021/09/25 05:50:33;;;;;;;;;;;;;;;;;;2129810;27;20006;-57
2021/09/25 05:51:35;;;;;;;;;;;;;;;;;;2139480;27;19923;-58
2021/09/25 05:52:36;;;;;;;;;;;;;;;;;;2142049;27;19927;-60
2021/09/25 05:53:37;;;;;;;;;;;;;;;;;;2136684;27;20010;-60
2021/09/25 05:54:39;;;;;;;;;;;;;;;;;;2134085;27;20348;-59
2021/09/25 05:55:41;;;;;;;;;;;;;;;;;;2133380;27;20408;-58
2021/09/25 05:56:43;;;;;;;;;;;;;;;;;;2132172;27;19927;-59
2021/09/25 05:57:45;;;;;;;;;;;;;;;;;;2131886;27;19931;-59
2021/09/25 05:58:46;;;;;;;;;;;;;;;;;;2133366;27;19966;-59
2021/09/25 05:59:47;;;;;;;;;;;;;;;;;;2132752;27;19931;-60
2021/09/25 06:00:48;;;;;;;;;;;;;;;;;;2133347;27;19934;-60
2021/09/25 06:01:49;;;;;;;;;;;;;;;;;;2133297;27;19981;-60
2021/09/25 06:02:50;;;;;;;;;;;;;;;;;;2132062;27;19932;-59
2021/09/25 06:03:52;;;;;;;;;;;;;;;;;;2141524;27;20294;-59
2021/09/25 06:04:53;;;;;;;;;;;;;;;;;;2141851;27;20091;-60
2021/09/25 06:05:55;;;;;;;;;;;;;;;;;;2133012;27;19923;-59
2021/09/25 06:06:57;;;;;;;;;;;;;;;;;;2141622;27;20371;-62
2021/09/25 06:08:01;;;;;;;;;;;;;;;;;;2140612;27;19923;-63
2021/09/25 06:09:02;;;;;;;;;;;;;;;;;;2132262;27;20006;-57
2021/09/25 06:10:03;;;;;;;;;;;;;;;;;;2133138;27;19923;-61
2021/09/25 06:11:04;;;;;;;;;;;;;;;;;;2132253;27;19923;-60
2021/09/25 06:12:05;;;;;;;;;;;;;;;;;;2126490;27;20026;-59
2021/09/25 06:13:07;;;;;;;;;;;;;;;;;;2124659;28;19923;-59
2021/09/25 06:14:09;;;;;;;;;;;;;;;;;;2128309;27;19923;-59
2021/09/25 06:15:11;;;;;;;;;;;;;;;;;;2139403;27;19930;-59
2021/09/25 06:16:13;;;;;;;;;;;;;;;;;;2141431;27;19991;-59
2021/09/25 06:17:17;;;;;;;;;;;;;;;;;;2133842;27;19980;-59
2021/09/25 06:18:18;;;;;;;;;;;;;;;;;;2140913;27;20411;-59
2021/09/25 06:19:20;;;;;;;;;;;;;;;;;;2141492;27;20421;-59
2021/09/25 06:20:23;;;;;;;;;;;;;;;;;;2130536;27;20033;-56
2021/09/25 06:21:24;;;;;;;;;;;;;;;;;;2141561;27;20351;-59
2021/09/25 06:22:26;;;;;;;;;;;;;;;;;;2141468;27;19965;-59
2021/09/25 06:23:28;;;;;;;;;;;;;;;;;;2131939;27;19929;-58
2021/09/25 06:24:29;;;;;;;;;;;;;;;;;;2132913;27;19930;-59
2021/09/25 06:25:30;;;;;;;;;;;;;;;;;;2132542;27;20388;-59
2021/09/25 06:26:31;;;;;;;;;;;;;;;;;;2134167;27;19923;-59
2021/09/25 06:27:33;;;;;;;;;;;;;;;;;;2132626;27;20384;-59
2021/09/25 06:28:34;;;;;;;;;;;;;;;;;;2131926;27;19930;-59
2021/09/25 06:29:37;;;;;;;;;;;;;;;;;;2131615;27;19934;-59
2021/09/25 06:30:40;;;;;;;;;;;;;;;;;;2132818;27;19974;-58
2021/09/25 06:31:41;;;;;;;;;;;;;;;;;;2131960;27;20795;-59
2021/09/25 06:32:42;;;;;;;;;;;;;;;;;;2129989;27;19923;-59
2021/09/25 06:33:44;;;;;;;;;;;;;;;;;;2132643;27;19923;-59
2021/09/25 06:34:46;;;;;;;;;;;;;;;;;;2132698;27;19923;-59
2021/09/25 06:35:48;;;;;;;;;;;;;;;;;;2133304;27;19980;-58
2021/09/25 06:36:49;;;;;;;;;;;;;;;;;;2132330;27;20371;-57
2021/09/25 06:37:50;;;;;;;;;;;;;;;;;;2132919;27;19923;-58
2021/09/25 06:38:51;;;;;;;;;;;;;;;;;;2124973;27;20265;-59
2021/09/25 06:39:53;;;;;;;;;;;;;;;;;;2124185;28;19946;-60
2021/09/25 06:40:54;;;;;;;;;;;;;;;;;;2128521;27;19983;-59
2021/09/25 06:41:56;;;;;;;;;;;;;;;;;;2140075;27;20049;-59
2021/09/25 06:42:57;;;;;;;;;;;;;;;;;;2141389;27;19923;-59
2021/09/25 06:43:59;;;;;;;;;;;;;;;;;;2133057;27;19923;-59
2021/09/25 06:45:00;;;;;;;;;;;;;;;;;;2133180;27;19931;-59
2021/09/25 06:46:01;;;;;;;;;;;;;;;;;;2132836;27;19927;-59
2021/09/25 06:47:02;;;;;;;;;;;;;;;;;;2132826;27;19972;-57
2021/09/25 06:48:04;;;;;;;;;;;;;;;;;;2124557;28;19968;-59
2021/09/25 06:49:05;;;;;;;;;;;;;;;;;;2124333;28;19931;-59
2021/09/25 06:50:07;;;;;;;;;;;;;;;;;;2132237;27;19928;-59
2021/09/25 06:51:08;;;;;;;;;;;;;;;;;;2127043;27;19924;-58
2021/09/25 06:52:10;;;;;;;;;;;;;;;;;;2124169;27;19963;-59
2021/09/25 06:53:11;;;;;;;;;;;;;;;;;;2132955;27;19986;-59
2021/09/25 06:54:13;;;;;;;;;;;;;;;;;;2132784;27;19930;-57
2021/09/25 06:55:14;;;;;;;;;;;;;;;;;;2132213;27;19923;-59
2021/09/25 06:56:15;;;;;;;;;;;;;;;;;;2133048;27;19981;-44
2021/09/25 06:57:16;;;;;;;;;;;;;;;;;;2132597;27;19923;-44
2021/09/25 06:58:18;;;;;;;;;;;;;;;;;;2129436;27;19927;-44
2021/09/25 06:59:19;;;;;;;;;;;;;;;;;;2133858;27;20005;-44
2021/09/25 07:00:20;;;;;;;;;;;;;;;;;;2132040;27;19930;-44
2021/09/25 07:01:21;;;;;;;;;;;;;;;;;;2131267;27;19927;-44
2021/09/25 07:02:21;;;;;;;;;;;;;;;;;;2132912;27;19945;-44